sensor_id;sensor_type;location;lat;lon;timestamp;P1;durP1;ratioP1;P2;durP2;ratioP2
84738;SDS011;74969;44.836;-0.586;2024-03-02T00:02:11;10.50;;;1.33;;
84738;SDS011;74969;44.836;-0.586;2024-03-02T00:04:37;5.72;;;1.60;;
84738;SDS011;74969;44.836;-0.586;2024-03-02T00:07:03;8.20;;;1.23;;
84738;SDS011;74969;44.836;-0.586;2024-03-02T00:09:29;5.97;;;1.15;;
84738;SDS011;74969;44.836;-0.586;2024-03-02T00:11:55;7.15;;;1.85;;
84738;SDS011;74969;44.836;-0.586;2024-03-02T00:14:21;5.80;;;1.13;;
84738;SDS011;74969;44.836;-0.586;2024-03-02T00:16:49;11.32;;;1.77;;
84738;SDS011;74969;44.836;-0.586;2024-03-02T00:19:16;10.32;;;1.40;;
84738;SDS011;74969;44.836;-0.586;2024-03-02T00:21:42;7.43;;;1.27;;
84738;SDS011;74969;44.836;-0.586;2024-03-02T00:24:12;8.27;;;1.17;;
84738;SDS011;74969;44.836;-0.586;2024-03-02T00:26:47;5.03;;;0.90;;
84738;SDS011;74969;44.836;-0.586;2024-03-02T00:29:14;9.88;;;1.55;;
84738;SDS011;74969;44.836;-0.586;2024-03-02T00:31:41;10.47;;;2.07;;
84738;SDS011;74969;44.836;-0.586;2024-03-02T00:34:07;9.57;;;2.20;;
84738;SDS011;74969;44.836;-0.586;2024-03-02T00:36:33;5.20;;;1.00;;
84738;SDS011;74969;44.836;-0.586;2024-03-02T00:38:59;11.57;;;1.48;;
84738;SDS011;74969;44.836;-0.586;2024-03-02T00:41:27;9.57;;;1.48;;
84738;SDS011;74969;44.836;-0.586;2024-03-02T00:46:23;8.00;;;0.85;;
84738;SDS011;74969;44.836;-0.586;2024-03-02T00:48:59;8.18;;;1.50;;
84738;SDS011;74969;44.836;-0.586;2024-03-02T00:51:27;4.78;;;1.00;;
84738;SDS011;74969;44.836;-0.586;2024-03-02T00:53:59;10.13;;;1.23;;
84738;SDS011;74969;44.836;-0.586;2024-03-02T00:56:28;11.40;;;1.48;;
84738;SDS011;74969;44.836;-0.586;2024-03-02T00:58:55;8.23;;;1.33;;
84738;SDS011;74969;44.836;-0.586;2024-03-02T01:01:21;8.38;;;1.77;;
84738;SDS011;74969;44.836;-0.586;2024-03-02T01:03:47;5.90;;;1.33;;
84738;SDS011;74969;44.836;-0.586;2024-03-02T01:06:14;9.93;;;1.70;;
84738;SDS011;74969;44.836;-0.586;2024-03-02T01:08:40;6.18;;;0.93;;
84738;SDS011;74969;44.836;-0.586;2024-03-02T01:11:06;5.40;;;1.42;;
84738;SDS011;74969;44.836;-0.586;2024-03-02T01:13:32;5.55;;;1.33;;
84738;SDS011;74969;44.836;-0.586;2024-03-02T01:15:58;9.17;;;1.67;;
84738;SDS011;74969;44.836;-0.586;2024-03-02T01:18:24;6.03;;;1.10;;
84738;SDS011;74969;44.836;-0.586;2024-03-02T01:20:50;14.43;;;1.73;;
84738;SDS011;74969;44.836;-0.586;2024-03-02T01:23:21;5.30;;;1.23;;
84738;SDS011;74969;44.836;-0.586;2024-03-02T01:25:47;8.95;;;1.58;;
84738;SDS011;74969;44.836;-0.586;2024-03-02T01:28:14;9.15;;;1.35;;
84738;SDS011;74969;44.836;-0.586;2024-03-02T01:30:40;5.47;;;1.30;;
84738;SDS011;74969;44.836;-0.586;2024-03-02T01:33:06;9.07;;;1.70;;
84738;SDS011;74969;44.836;-0.586;2024-03-02T01:35:32;9.43;;;1.50;;
84738;SDS011;74969;44.836;-0.586;2024-03-02T01:37:58;10.80;;;1.27;;
84738;SDS011;74969;44.836;-0.586;2024-03-02T01:40:23;8.47;;;1.40;;
84738;SDS011;74969;44.836;-0.586;2024-03-02T01:42:53;10.10;;;1.38;;
84738;SDS011;74969;44.836;-0.586;2024-03-02T01:45:20;6.22;;;0.85;;
84738;SDS011;74969;44.836;-0.586;2024-03-02T01:47:46;7.15;;;0.90;;
84738;SDS011;74969;44.836;-0.586;2024-03-02T01:50:12;4.73;;;1.03;;
84738;SDS011;74969;44.836;-0.586;2024-03-02T01:52:38;4.18;;;0.90;;
84738;SDS011;74969;44.836;-0.586;2024-03-02T01:55:04;8.43;;;0.98;;
84738;SDS011;74969;44.836;-0.586;2024-03-02T01:57:31;5.03;;;0.98;;
84738;SDS011;74969;44.836;-0.586;2024-03-02T01:59:57;3.43;;;0.60;;
84738;SDS011;74969;44.836;-0.586;2024-03-02T02:02:23;2.20;;;0.85;;
84738;SDS011;74969;44.836;-0.586;2024-03-02T02:04:49;5.90;;;0.90;;
84738;SDS011;74969;44.836;-0.586;2024-03-02T02:07:14;9.80;;;0.90;;
84738;SDS011;74969;44.836;-0.586;2024-03-02T02:09:43;5.50;;;0.93;;
84738;SDS011;74969;44.836;-0.586;2024-03-02T02:12:09;10.13;;;0.85;;
84738;SDS011;74969;44.836;-0.586;2024-03-02T02:14:36;5.80;;;1.17;;
84738;SDS011;74969;44.836;-0.586;2024-03-02T02:17:02;7.88;;;0.77;;
84738;SDS011;74969;44.836;-0.586;2024-03-02T02:19:28;10.97;;;1.93;;
84738;SDS011;74969;44.836;-0.586;2024-03-02T02:21:54;4.90;;;1.05;;
84738;SDS011;74969;44.836;-0.586;2024-03-02T02:24:20;7.50;;;0.77;;
84738;SDS011;74969;44.836;-0.586;2024-03-02T02:26:45;4.53;;;0.83;;
84738;SDS011;74969;44.836;-0.586;2024-03-02T02:29:11;3.28;;;0.70;;
84738;SDS011;74969;44.836;-0.586;2024-03-02T02:31:40;3.13;;;0.93;;
84738;SDS011;74969;44.836;-0.586;2024-03-02T02:34:06;3.08;;;0.80;;
84738;SDS011;74969;44.836;-0.586;2024-03-02T02:36:32;3.33;;;0.60;;
84738;SDS011;74969;44.836;-0.586;2024-03-02T02:39:02;5.70;;;0.77;;
84738;SDS011;74969;44.836;-0.586;2024-03-02T02:41:29;7.00;;;1.20;;
84738;SDS011;74969;44.836;-0.586;2024-03-02T02:43:55;4.35;;;1.23;;
84738;SDS011;74969;44.836;-0.586;2024-03-02T02:46:21;6.07;;;0.70;;
84738;SDS011;74969;44.836;-0.586;2024-03-02T02:48:47;3.80;;;1.00;;
84738;SDS011;74969;44.836;-0.586;2024-03-02T02:51:13;6.07;;;0.77;;
84738;SDS011;74969;44.836;-0.586;2024-03-02T02:53:38;7.07;;;0.80;;
84738;SDS011;74969;44.836;-0.586;2024-03-02T02:56:07;6.43;;;1.08;;
84738;SDS011;74969;44.836;-0.586;2024-03-02T02:58:32;5.78;;;0.70;;
84738;SDS011;74969;44.836;-0.586;2024-03-02T03:00:58;5.53;;;0.90;;
84738;SDS011;74969;44.836;-0.586;2024-03-02T03:03:24;6.53;;;1.07;;
84738;SDS011;74969;44.836;-0.586;2024-03-02T03:05:49;7.18;;;0.68;;
84738;SDS011;74969;44.836;-0.586;2024-03-02T03:08:15;5.87;;;1.73;;
84738;SDS011;74969;44.836;-0.586;2024-03-02T03:10:41;7.97;;;1.40;;
84738;SDS011;74969;44.836;-0.586;2024-03-02T03:13:07;7.83;;;1.97;;
84738;SDS011;74969;44.836;-0.586;2024-03-02T03:15:34;5.45;;;1.13;;
84738;SDS011;74969;44.836;-0.586;2024-03-02T03:18:01;9.50;;;1.48;;
84738;SDS011;74969;44.836;-0.586;2024-03-02T03:20:29;7.75;;;0.73;;
84738;SDS011;74969;44.836;-0.586;2024-03-02T03:22:55;4.90;;;0.90;;
84738;SDS011;74969;44.836;-0.586;2024-03-02T03:25:21;7.17;;;1.60;;
84738;SDS011;74969;44.836;-0.586;2024-03-02T03:27:46;3.08;;;0.52;;
84738;SDS011;74969;44.836;-0.586;2024-03-02T03:30:12;5.80;;;1.43;;
84738;SDS011;74969;44.836;-0.586;2024-03-02T03:32:38;7.28;;;0.90;;
84738;SDS011;74969;44.836;-0.586;2024-03-02T03:35:04;8.85;;;1.23;;
84738;SDS011;74969;44.836;-0.586;2024-03-02T03:37:31;6.17;;;1.10;;
84738;SDS011;74969;44.836;-0.586;2024-03-02T03:39:58;8.63;;;1.00;;
84738;SDS011;74969;44.836;-0.586;2024-03-02T03:42:24;6.35;;;1.20;;
84738;SDS011;74969;44.836;-0.586;2024-03-02T03:44:50;6.87;;;1.30;;
84738;SDS011;74969;44.836;-0.586;2024-03-02T03:47:16;5.90;;;1.05;;
84738;SDS011;74969;44.836;-0.586;2024-03-02T03:49:41;4.03;;;0.80;;
84738;SDS011;74969;44.836;-0.586;2024-03-02T03:52:07;2.35;;;0.93;;
84738;SDS011;74969;44.836;-0.586;2024-03-02T03:54:32;5.87;;;0.90;;
84738;SDS011;74969;44.836;-0.586;2024-03-02T03:56:58;5.77;;;1.10;;
84738;SDS011;74969;44.836;-0.586;2024-03-02T03:59:24;6.78;;;0.63;;
84738;SDS011;74969;44.836;-0.586;2024-03-02T04:01:49;8.60;;;1.10;;
84738;SDS011;74969;44.836;-0.586;2024-03-02T04:04:15;5.47;;;1.52;;
84738;SDS011;74969;44.836;-0.586;2024-03-02T04:06:42;6.93;;;1.00;;
84738;SDS011;74969;44.836;-0.586;2024-03-02T04:09:07;4.22;;;1.92;;
84738;SDS011;74969;44.836;-0.586;2024-03-02T04:11:33;3.00;;;0.57;;
84738;SDS011;74969;44.836;-0.586;2024-03-02T04:13:59;6.40;;;1.15;;
84738;SDS011;74969;44.836;-0.586;2024-03-02T04:16:24;3.23;;;0.67;;
84738;SDS011;74969;44.836;-0.586;2024-03-02T04:18:50;2.70;;;0.55;;
84738;SDS011;74969;44.836;-0.586;2024-03-02T04:21:16;3.03;;;0.50;;
84738;SDS011;74969;44.836;-0.586;2024-03-02T04:23:41;3.15;;;0.60;;
84738;SDS011;74969;44.836;-0.586;2024-03-02T04:26:07;2.65;;;0.40;;
84738;SDS011;74969;44.836;-0.586;2024-03-02T04:28:33;2.27;;;0.60;;
84738;SDS011;74969;44.836;-0.586;2024-03-02T04:30:58;3.95;;;0.55;;
84738;SDS011;74969;44.836;-0.586;2024-03-02T04:33:24;2.97;;;0.60;;
84738;SDS011;74969;44.836;-0.586;2024-03-02T04:35:50;2.42;;;0.70;;
84738;SDS011;74969;44.836;-0.586;2024-03-02T04:38:15;1.87;;;0.60;;
84738;SDS011;74969;44.836;-0.586;2024-03-02T04:40:41;3.33;;;0.90;;
84738;SDS011;74969;44.836;-0.586;2024-03-02T04:43:07;2.78;;;0.43;;
84738;SDS011;74969;44.836;-0.586;2024-03-02T04:45:34;2.95;;;0.63;;
84738;SDS011;74969;44.836;-0.586;2024-03-02T04:48:01;1.50;;;0.60;;
84738;SDS011;74969;44.836;-0.586;2024-03-02T04:50:26;2.63;;;0.50;;
84738;SDS011;74969;44.836;-0.586;2024-03-02T04:52:52;0.70;;;0.27;;
84738;SDS011;74969;44.836;-0.586;2024-03-02T04:55:18;5.15;;;0.47;;
84738;SDS011;74969;44.836;-0.586;2024-03-02T04:57:43;1.97;;;0.80;;
84738;SDS011;74969;44.836;-0.586;2024-03-02T05:00:09;2.33;;;0.60;;
84738;SDS011;74969;44.836;-0.586;2024-03-02T05:02:35;2.53;;;0.40;;
84738;SDS011;74969;44.836;-0.586;2024-03-02T05:05:01;2.65;;;0.40;;
84738;SDS011;74969;44.836;-0.586;2024-03-02T05:07:28;2.45;;;0.63;;
84738;SDS011;74969;44.836;-0.586;2024-03-02T05:09:53;2.10;;;0.60;;
84738;SDS011;74969;44.836;-0.586;2024-03-02T05:12:19;3.47;;;0.40;;
84738;SDS011;74969;44.836;-0.586;2024-03-02T05:15:03;4.40;;;0.87;;
84738;SDS011;74969;44.836;-0.586;2024-03-02T05:17:29;1.13;;;0.40;;
84738;SDS011;74969;44.836;-0.586;2024-03-02T05:19:55;1.55;;;0.63;;
84738;SDS011;74969;44.836;-0.586;2024-03-02T05:22:20;3.90;;;0.90;;
84738;SDS011;74969;44.836;-0.586;2024-03-02T05:24:46;2.15;;;0.50;;
84738;SDS011;74969;44.836;-0.586;2024-03-02T05:27:12;0.65;;;0.38;;
84738;SDS011;74969;44.836;-0.586;2024-03-02T05:29:37;2.50;;;0.60;;
84738;SDS011;74969;44.836;-0.586;2024-03-02T05:32:03;3.92;;;0.60;;
84738;SDS011;74969;44.836;-0.586;2024-03-02T05:34:29;0.90;;;0.50;;
84738;SDS011;74969;44.836;-0.586;2024-03-02T05:36:55;2.28;;;0.60;;
84738;SDS011;74969;44.836;-0.586;2024-03-02T05:39:22;2.38;;;0.68;;
84738;SDS011;74969;44.836;-0.586;2024-03-02T05:41:48;1.10;;;0.40;;
84738;SDS011;74969;44.836;-0.586;2024-03-02T05:44:14;1.02;;;0.50;;
84738;SDS011;74969;44.836;-0.586;2024-03-02T05:46:40;3.28;;;0.40;;
84738;SDS011;74969;44.836;-0.586;2024-03-02T05:49:07;1.53;;;0.37;;
84738;SDS011;74969;44.836;-0.586;2024-03-02T05:51:33;1.25;;;0.50;;
84738;SDS011;74969;44.836;-0.586;2024-03-02T05:53:58;1.88;;;0.60;;
84738;SDS011;74969;44.836;-0.586;2024-03-02T05:56:24;2.47;;;0.60;;
84738;SDS011;74969;44.836;-0.586;2024-03-02T05:58:50;1.92;;;0.52;;
84738;SDS011;74969;44.836;-0.586;2024-03-02T06:01:18;5.18;;;0.77;;
84738;SDS011;74969;44.836;-0.586;2024-03-02T06:03:44;2.78;;;0.55;;
84738;SDS011;74969;44.836;-0.586;2024-03-02T06:06:10;1.10;;;0.50;;
84738;SDS011;74969;44.836;-0.586;2024-03-02T06:08:35;3.72;;;0.40;;
84738;SDS011;74969;44.836;-0.586;2024-03-02T06:11:01;1.58;;;0.50;;
84738;SDS011;74969;44.836;-0.586;2024-03-02T06:13:27;0.97;;;0.33;;
84738;SDS011;74969;44.836;-0.586;2024-03-02T06:15:53;0.93;;;0.32;;
84738;SDS011;74969;44.836;-0.586;2024-03-02T06:18:18;1.77;;;0.50;;
84738;SDS011;74969;44.836;-0.586;2024-03-02T06:20:44;0.95;;;0.40;;
84738;SDS011;74969;44.836;-0.586;2024-03-02T06:23:09;0.82;;;0.30;;
84738;SDS011;74969;44.836;-0.586;2024-03-02T06:25:35;1.33;;;0.40;;
84738;SDS011;74969;44.836;-0.586;2024-03-02T06:28:01;1.48;;;0.43;;
84738;SDS011;74969;44.836;-0.586;2024-03-02T06:30:27;1.60;;;0.43;;
84738;SDS011;74969;44.836;-0.586;2024-03-02T06:32:53;3.40;;;0.60;;
84738;SDS011;74969;44.836;-0.586;2024-03-02T06:35:18;1.13;;;0.38;;
84738;SDS011;74969;44.836;-0.586;2024-03-02T06:37:44;1.95;;;0.60;;
84738;SDS011;74969;44.836;-0.586;2024-03-02T06:40:10;1.30;;;0.30;;
84738;SDS011;74969;44.836;-0.586;2024-03-02T06:42:36;2.78;;;0.57;;
84738;SDS011;74969;44.836;-0.586;2024-03-02T06:45:02;0.45;;;0.20;;
84738;SDS011;74969;44.836;-0.586;2024-03-02T06:47:28;1.15;;;0.40;;
84738;SDS011;74969;44.836;-0.586;2024-03-02T06:49:54;1.05;;;0.50;;
84738;SDS011;74969;44.836;-0.586;2024-03-02T06:52:20;3.45;;;0.52;;
84738;SDS011;74969;44.836;-0.586;2024-03-02T06:54:46;1.02;;;0.60;;
84738;SDS011;74969;44.836;-0.586;2024-03-02T06:57:11;1.48;;;0.45;;
84738;SDS011;74969;44.836;-0.586;2024-03-02T06:59:37;2.63;;;0.50;;
84738;SDS011;74969;44.836;-0.586;2024-03-02T07:02:03;1.23;;;0.43;;
84738;SDS011;74969;44.836;-0.586;2024-03-02T07:04:29;1.23;;;0.30;;
84738;SDS011;74969;44.836;-0.586;2024-03-02T07:06:54;0.55;;;0.35;;
84738;SDS011;74969;44.836;-0.586;2024-03-02T07:09:20;0.70;;;0.40;;
84738;SDS011;74969;44.836;-0.586;2024-03-02T07:11:48;0.73;;;0.50;;
84738;SDS011;74969;44.836;-0.586;2024-03-02T07:14:14;1.27;;;0.57;;
84738;SDS011;74969;44.836;-0.586;2024-03-02T07:16:40;1.20;;;0.70;;
84738;SDS011;74969;44.836;-0.586;2024-03-02T07:19:08;2.50;;;0.80;;
84738;SDS011;74969;44.836;-0.586;2024-03-02T07:21:34;5.35;;;0.68;;
84738;SDS011;74969;44.836;-0.586;2024-03-02T07:23:59;1.50;;;0.70;;
84738;SDS011;74969;44.836;-0.586;2024-03-02T07:26:28;1.38;;;0.75;;
84738;SDS011;74969;44.836;-0.586;2024-03-02T07:28:56;2.55;;;0.70;;
84738;SDS011;74969;44.836;-0.586;2024-03-02T07:31:22;2.22;;;0.70;;
84738;SDS011;74969;44.836;-0.586;2024-03-02T07:33:47;5.07;;;1.00;;
84738;SDS011;74969;44.836;-0.586;2024-03-02T07:36:13;1.30;;;0.80;;
84738;SDS011;74969;44.836;-0.586;2024-03-02T07:38:39;2.73;;;0.90;;
84738;SDS011;74969;44.836;-0.586;2024-03-02T07:41:05;1.55;;;0.88;;
84738;SDS011;74969;44.836;-0.586;2024-03-02T07:43:32;1.90;;;0.90;;
84738;SDS011;74969;44.836;-0.586;2024-03-02T07:45:58;4.03;;;1.23;;
84738;SDS011;74969;44.836;-0.586;2024-03-02T07:48:24;1.50;;;1.00;;
84738;SDS011;74969;44.836;-0.586;2024-03-02T07:50:50;4.00;;;1.55;;
84738;SDS011;74969;44.836;-0.586;2024-03-02T07:53:16;4.10;;;1.25;;
84738;SDS011;74969;44.836;-0.586;2024-03-02T07:55:42;2.30;;;1.10;;
84738;SDS011;74969;44.836;-0.586;2024-03-02T07:58:07;2.92;;;1.30;;
84738;SDS011;74969;44.836;-0.586;2024-03-02T08:00:33;2.72;;;1.38;;
84738;SDS011;74969;44.836;-0.586;2024-03-02T08:03:00;2.40;;;1.03;;
84738;SDS011;74969;44.836;-0.586;2024-03-02T08:05:26;5.03;;;0.90;;
84738;SDS011;74969;44.836;-0.586;2024-03-02T08:07:52;2.20;;;0.98;;
84738;SDS011;74969;44.836;-0.586;2024-03-02T08:10:18;1.03;;;0.50;;
84738;SDS011;74969;44.836;-0.586;2024-03-02T08:12:44;1.63;;;0.80;;
84738;SDS011;74969;44.836;-0.586;2024-03-02T08:15:10;2.70;;;0.90;;
84738;SDS011;74969;44.836;-0.586;2024-03-02T08:17:38;1.48;;;0.80;;
84738;SDS011;74969;44.836;-0.586;2024-03-02T08:20:10;1.48;;;0.95;;
84738;SDS011;74969;44.836;-0.586;2024-03-02T08:22:36;1.50;;;0.70;;
84738;SDS011;74969;44.836;-0.586;2024-03-02T08:25:03;2.05;;;0.65;;
84738;SDS011;74969;44.836;-0.586;2024-03-02T08:27:29;1.73;;;0.80;;
84738;SDS011;74969;44.836;-0.586;2024-03-02T08:29:57;1.52;;;0.88;;
84738;SDS011;74969;44.836;-0.586;2024-03-02T08:32:22;3.30;;;1.00;;
84738;SDS011;74969;44.836;-0.586;2024-03-02T08:34:48;1.33;;;1.00;;
84738;SDS011;74969;44.836;-0.586;2024-03-02T08:37:14;3.30;;;0.90;;
84738;SDS011;74969;44.836;-0.586;2024-03-02T08:39:39;1.95;;;1.10;;
84738;SDS011;74969;44.836;-0.586;2024-03-02T08:42:05;4.00;;;0.97;;
84738;SDS011;74969;44.836;-0.586;2024-03-02T08:44:31;1.45;;;1.08;;
84738;SDS011;74969;44.836;-0.586;2024-03-02T08:46:58;1.98;;;1.02;;
84738;SDS011;74969;44.836;-0.586;2024-03-02T08:49:24;3.13;;;1.40;;
84738;SDS011;74969;44.836;-0.586;2024-03-02T08:51:50;1.55;;;0.77;;
84738;SDS011;74969;44.836;-0.586;2024-03-02T08:54:20;4.07;;;1.10;;
84738;SDS011;74969;44.836;-0.586;2024-03-02T08:56:47;2.35;;;1.00;;
84738;SDS011;74969;44.836;-0.586;2024-03-02T08:59:14;1.90;;;1.07;;
84738;SDS011;74969;44.836;-0.586;2024-03-02T09:01:39;3.15;;;1.05;;
84738;SDS011;74969;44.836;-0.586;2024-03-02T09:04:07;2.03;;;0.90;;
84738;SDS011;74969;44.836;-0.586;2024-03-02T09:06:35;1.87;;;0.90;;
84738;SDS011;74969;44.836;-0.586;2024-03-02T09:09:01;1.77;;;0.75;;
84738;SDS011;74969;44.836;-0.586;2024-03-02T09:11:27;1.85;;;0.70;;
84738;SDS011;74969;44.836;-0.586;2024-03-02T09:13:53;2.33;;;0.75;;
84738;SDS011;74969;44.836;-0.586;2024-03-02T09:16:21;2.83;;;1.10;;
84738;SDS011;74969;44.836;-0.586;2024-03-02T09:18:46;1.25;;;0.77;;
84738;SDS011;74969;44.836;-0.586;2024-03-02T09:21:12;3.40;;;0.90;;
84738;SDS011;74969;44.836;-0.586;2024-03-02T09:23:38;1.25;;;0.60;;
84738;SDS011;74969;44.836;-0.586;2024-03-02T09:26:05;1.65;;;0.82;;
84738;SDS011;74969;44.836;-0.586;2024-03-02T09:28:31;0.90;;;0.60;;
84738;SDS011;74969;44.836;-0.586;2024-03-02T09:30:56;1.92;;;0.75;;
84738;SDS011;74969;44.836;-0.586;2024-03-02T09:33:22;1.57;;;1.23;;
84738;SDS011;74969;44.836;-0.586;2024-03-02T09:35:48;1.35;;;0.60;;
84738;SDS011;74969;44.836;-0.586;2024-03-02T09:38:14;1.10;;;0.60;;
84738;SDS011;74969;44.836;-0.586;2024-03-02T09:40:41;0.98;;;0.55;;
84738;SDS011;74969;44.836;-0.586;2024-03-02T09:43:07;1.27;;;0.40;;
84738;SDS011;74969;44.836;-0.586;2024-03-02T09:45:33;1.60;;;0.50;;
84738;SDS011;74969;44.836;-0.586;2024-03-02T09:47:59;1.73;;;0.47;;
84738;SDS011;74969;44.836;-0.586;2024-03-02T09:50:24;1.73;;;0.57;;
84738;SDS011;74969;44.836;-0.586;2024-03-02T09:52:50;1.20;;;0.63;;
84738;SDS011;74969;44.836;-0.586;2024-03-02T09:55:17;1.02;;;0.50;;
84738;SDS011;74969;44.836;-0.586;2024-03-02T09:57:45;1.45;;;0.50;;
84738;SDS011;74969;44.836;-0.586;2024-03-02T10:00:11;2.67;;;0.60;;
84738;SDS011;74969;44.836;-0.586;2024-03-02T10:02:40;2.70;;;0.60;;
84738;SDS011;74969;44.836;-0.586;2024-03-02T10:05:07;1.77;;;0.50;;
84738;SDS011;74969;44.836;-0.586;2024-03-02T10:07:36;1.90;;;0.70;;
84738;SDS011;74969;44.836;-0.586;2024-03-02T10:10:14;1.00;;;0.50;;
84738;SDS011;74969;44.836;-0.586;2024-03-02T10:12:41;1.67;;;0.60;;
84738;SDS011;74969;44.836;-0.586;2024-03-02T10:15:07;1.92;;;0.57;;
84738;SDS011;74969;44.836;-0.586;2024-03-02T10:17:34;2.05;;;0.40;;
84738;SDS011;74969;44.836;-0.586;2024-03-02T10:20:14;0.70;;;0.30;;
84738;SDS011;74969;44.836;-0.586;2024-03-02T10:22:46;1.42;;;0.35;;
84738;SDS011;74969;44.836;-0.586;2024-03-02T10:25:27;1.50;;;0.50;;
84738;SDS011;74969;44.836;-0.586;2024-03-02T10:28:00;1.33;;;0.83;;
84738;SDS011;74969;44.836;-0.586;2024-03-02T10:30:27;1.58;;;0.70;;
84738;SDS011;74969;44.836;-0.586;2024-03-02T10:32:56;1.52;;;0.65;;
84738;SDS011;74969;44.836;-0.586;2024-03-02T10:35:22;1.58;;;0.52;;
84738;SDS011;74969;44.836;-0.586;2024-03-02T10:37:51;1.65;;;0.60;;
84738;SDS011;74969;44.836;-0.586;2024-03-02T10:40:18;1.90;;;0.43;;
84738;SDS011;74969;44.836;-0.586;2024-03-02T10:42:46;2.60;;;1.00;;
84738;SDS011;74969;44.836;-0.586;2024-03-02T10:45:13;1.88;;;0.70;;
84738;SDS011;74969;44.836;-0.586;2024-03-02T10:47:41;1.13;;;0.45;;
84738;SDS011;74969;44.836;-0.586;2024-03-02T10:50:08;1.67;;;0.40;;
84738;SDS011;74969;44.836;-0.586;2024-03-02T10:52:35;0.80;;;0.30;;
84738;SDS011;74969;44.836;-0.586;2024-03-02T10:55:01;1.40;;;0.40;;
84738;SDS011;74969;44.836;-0.586;2024-03-02T10:57:32;0.88;;;0.40;;
84738;SDS011;74969;44.836;-0.586;2024-03-02T11:00:05;2.28;;;0.40;;
84738;SDS011;74969;44.836;-0.586;2024-03-02T11:02:32;0.98;;;0.40;;
84738;SDS011;74969;44.836;-0.586;2024-03-02T11:05:02;0.75;;;0.40;;
84738;SDS011;74969;44.836;-0.586;2024-03-02T11:07:32;1.02;;;0.30;;
84738;SDS011;74969;44.836;-0.586;2024-03-02T11:10:00;1.25;;;0.38;;
84738;SDS011;74969;44.836;-0.586;2024-03-02T11:12:38;0.80;;;0.40;;
84738;SDS011;74969;44.836;-0.586;2024-03-02T11:15:10;0.60;;;0.30;;
84738;SDS011;74969;44.836;-0.586;2024-03-02T11:17:40;0.82;;;0.40;;
84738;SDS011;74969;44.836;-0.586;2024-03-02T11:20:07;2.60;;;1.48;;
84738;SDS011;74969;44.836;-0.586;2024-03-02T11:22:35;1.27;;;0.40;;
84738;SDS011;74969;44.836;-0.586;2024-03-02T11:25:01;1.52;;;0.40;;
84738;SDS011;74969;44.836;-0.586;2024-03-02T11:33:07;1.42;;;0.50;;
84738;SDS011;74969;44.836;-0.586;2024-03-02T11:35:33;1.07;;;0.40;;
84738;SDS011;74969;44.836;-0.586;2024-03-02T11:38:05;1.27;;;0.50;;
84738;SDS011;74969;44.836;-0.586;2024-03-02T11:40:32;1.92;;;0.50;;
84738;SDS011;74969;44.836;-0.586;2024-03-02T11:43:00;1.67;;;0.77;;
84738;SDS011;74969;44.836;-0.586;2024-03-02T11:45:26;1.73;;;0.40;;
84738;SDS011;74969;44.836;-0.586;2024-03-02T11:47:56;1.73;;;0.60;;
84738;SDS011;74969;44.836;-0.586;2024-03-02T11:50:35;1.33;;;0.70;;
84738;SDS011;74969;44.836;-0.586;2024-03-02T11:53:05;2.67;;;0.70;;
84738;SDS011;74969;44.836;-0.586;2024-03-02T11:55:34;1.77;;;0.60;;
84738;SDS011;74969;44.836;-0.586;2024-03-02T11:58:05;2.03;;;0.63;;
84738;SDS011;74969;44.836;-0.586;2024-03-02T12:00:32;1.10;;;0.50;;
84738;SDS011;74969;44.836;-0.586;2024-03-02T12:03:01;1.95;;;0.60;;
84738;SDS011;74969;44.836;-0.586;2024-03-02T12:05:28;1.40;;;0.47;;
84738;SDS011;74969;44.836;-0.586;2024-03-02T12:08:04;2.65;;;0.70;;
84738;SDS011;74969;44.836;-0.586;2024-03-02T12:10:31;0.87;;;0.40;;
84738;SDS011;74969;44.836;-0.586;2024-03-02T12:15:28;3.35;;;0.57;;
84738;SDS011;74969;44.836;-0.586;2024-03-02T12:17:56;2.13;;;0.80;;
84738;SDS011;74969;44.836;-0.586;2024-03-02T12:20:24;2.55;;;0.40;;
84738;SDS011;74969;44.836;-0.586;2024-03-02T12:22:51;0.97;;;0.40;;
84738;SDS011;74969;44.836;-0.586;2024-03-02T12:25:17;1.95;;;0.20;;
84738;SDS011;74969;44.836;-0.586;2024-03-02T12:27:48;1.90;;;0.40;;
84738;SDS011;74969;44.836;-0.586;2024-03-02T12:30:18;0.45;;;0.20;;
84738;SDS011;74969;44.836;-0.586;2024-03-02T12:32:44;0.82;;;0.20;;
84738;SDS011;74969;44.836;-0.586;2024-03-02T12:35:11;1.63;;;1.07;;
84738;SDS011;74969;44.836;-0.586;2024-03-02T12:37:49;4.45;;;0.50;;
84738;SDS011;74969;44.836;-0.586;2024-03-02T12:40:16;2.72;;;0.45;;
84738;SDS011;74969;44.836;-0.586;2024-03-02T12:42:43;4.00;;;0.38;;
84738;SDS011;74969;44.836;-0.586;2024-03-02T12:45:10;1.63;;;0.30;;
84738;SDS011;74969;44.836;-0.586;2024-03-02T12:47:36;2.60;;;0.40;;
84738;SDS011;74969;44.836;-0.586;2024-03-02T12:50:04;2.22;;;0.40;;
84738;SDS011;74969;44.836;-0.586;2024-03-02T12:52:30;2.35;;;0.50;;
84738;SDS011;74969;44.836;-0.586;2024-03-02T12:55:02;1.02;;;0.40;;
84738;SDS011;74969;44.836;-0.586;2024-03-02T12:57:30;1.27;;;0.30;;
84738;SDS011;74969;44.836;-0.586;2024-03-02T13:00:00;3.03;;;0.40;;
84738;SDS011;74969;44.836;-0.586;2024-03-02T13:02:34;1.50;;;0.30;;
84738;SDS011;74969;44.836;-0.586;2024-03-02T13:05:00;1.65;;;0.30;;
84738;SDS011;74969;44.836;-0.586;2024-03-02T13:07:26;4.57;;;0.50;;
84738;SDS011;74969;44.836;-0.586;2024-03-02T13:09:52;0.60;;;0.20;;
84738;SDS011;74969;44.836;-0.586;2024-03-02T13:12:20;1.35;;;0.35;;
84738;SDS011;74969;44.836;-0.586;2024-03-02T13:14:49;3.00;;;0.88;;
84738;SDS011;74969;44.836;-0.586;2024-03-02T13:17:20;2.97;;;0.70;;
84738;SDS011;74969;44.836;-0.586;2024-03-02T13:19:55;3.83;;;0.50;;
84738;SDS011;74969;44.836;-0.586;2024-03-02T13:22:25;1.57;;;0.50;;
84738;SDS011;74969;44.836;-0.586;2024-03-02T13:24:51;1.90;;;0.93;;
84738;SDS011;74969;44.836;-0.586;2024-03-02T13:27:19;2.38;;;0.68;;
84738;SDS011;74969;44.836;-0.586;2024-03-02T13:29:46;2.53;;;0.90;;
84738;SDS011;74969;44.836;-0.586;2024-03-02T13:32:15;3.80;;;1.00;;
84738;SDS011;74969;44.836;-0.586;2024-03-02T13:34:41;5.00;;;0.83;;
84738;SDS011;74969;44.836;-0.586;2024-03-02T13:37:08;1.70;;;0.60;;
84738;SDS011;74969;44.836;-0.586;2024-03-02T13:39:34;1.75;;;0.60;;
84738;SDS011;74969;44.836;-0.586;2024-03-02T13:42:06;2.38;;;0.95;;
84738;SDS011;74969;44.836;-0.586;2024-03-02T13:44:33;2.83;;;1.00;;
84738;SDS011;74969;44.836;-0.586;2024-03-02T13:47:02;1.83;;;0.63;;
84738;SDS011;74969;44.836;-0.586;2024-03-02T13:49:29;5.53;;;0.95;;
84738;SDS011;74969;44.836;-0.586;2024-03-02T13:52:04;2.92;;;0.88;;
84738;SDS011;74969;44.836;-0.586;2024-03-02T13:54:38;3.67;;;1.17;;
84738;SDS011;74969;44.836;-0.586;2024-03-02T13:57:07;3.05;;;1.08;;
84738;SDS011;74969;44.836;-0.586;2024-03-02T13:59:34;2.93;;;1.17;;
84738;SDS011;74969;44.836;-0.586;2024-03-02T14:02:01;2.40;;;1.17;;
84738;SDS011;74969;44.836;-0.586;2024-03-02T14:04:29;1.80;;;0.80;;
84738;SDS011;74969;44.836;-0.586;2024-03-02T14:07:01;1.80;;;0.95;;
84738;SDS011;74969;44.836;-0.586;2024-03-02T14:09:27;2.45;;;0.93;;
84738;SDS011;74969;44.836;-0.586;2024-03-02T14:11:53;5.23;;;1.43;;
84738;SDS011;74969;44.836;-0.586;2024-03-02T14:14:20;3.40;;;1.02;;
84738;SDS011;74969;44.836;-0.586;2024-03-02T14:16:46;2.05;;;1.35;;
84738;SDS011;74969;44.836;-0.586;2024-03-02T14:19:12;6.57;;;1.97;;
84738;SDS011;74969;44.836;-0.586;2024-03-02T14:21:38;3.78;;;1.38;;
84738;SDS011;74969;44.836;-0.586;2024-03-02T14:24:04;2.63;;;0.77;;
84738;SDS011;74969;44.836;-0.586;2024-03-02T14:26:32;4.68;;;0.90;;
84738;SDS011;74969;44.836;-0.586;2024-03-02T14:28:58;2.23;;;1.03;;
84738;SDS011;74969;44.836;-0.586;2024-03-02T14:31:26;2.53;;;1.02;;
84738;SDS011;74969;44.836;-0.586;2024-03-02T14:33:52;1.90;;;0.90;;
84738;SDS011;74969;44.836;-0.586;2024-03-02T14:36:19;3.78;;;1.17;;
84738;SDS011;74969;44.836;-0.586;2024-03-02T14:38:45;3.23;;;0.60;;
84738;SDS011;74969;44.836;-0.586;2024-03-02T14:41:11;4.65;;;2.00;;
84738;SDS011;74969;44.836;-0.586;2024-03-02T14:43:36;3.97;;;0.77;;